Terminal Aerodrome Forecast
Issued by NWS La Crosse, WI

Home | Current Version | Previous Version | Text Only | Print | Product List | Glossary On
Versions: 1 2 3 4 5 6 7 8 9 10 11 12 13 14 15 16 17 18 19 20
000
FTUS43 KARX 232322
TAFRST
TAF
KRST 232322Z 2400/2424 30014KT P6SM BKN080
     FM240200 30011KT P6SM SCT080
     FM241500 30015G23KT P6SM SCT100
     FM242000 30014G22KT P6SM VCSH BKN045=

USA.gov is the U.S. government's official web portal to all federal, state and local government web resources and services.